X  Close Metar Aviation Weather Data     EHKD De Kooy Airport
Temperature
9°C Temperature
8°C Dewpoint
94% Humidity



Wind
14 MPH
23 KM/H
6 M/S
12 KTS



170°
S
Current Conditions

Drizzle Drizzle
Pressure 1003.05 (hPa) - 29.62 (inHg)
Visibility 5.6 (mile) - 9 (km)
Airport
Airport-code EHKD

Location: De Kooy Airport
Distance: 34 (mi)

Metar:
EHKD 291725Z AUTO 17012KT 9000 DZ FEW005 SCT006 BKN008 09/08 Q1003 YLO TEMPO 4500 DZ SCT005 OVC006

Time: 29-02-2024 18:25 CET